createdAt,value
2022-11-14T00:00:25.247Z,540.00
2022-11-14T00:00:55.300Z,541.00
2022-11-14T00:01:25.336Z,540.00
2022-11-14T00:01:55.367Z,539.00
2022-11-14T00:02:25.425Z,539.00
2022-11-14T00:02:55.528Z,538.00
2022-11-14T00:03:25.552Z,537.00
2022-11-14T00:03:55.589Z,536.00
2022-11-14T00:04:29.494Z,537.00
2022-11-14T00:04:55.702Z,537.00
2022-11-14T00:05:25.729Z,536.00
2022-11-14T00:05:55.793Z,536.00
2022-11-14T00:06:25.821Z,536.00
2022-11-14T00:06:55.899Z,535.00
2022-11-14T00:07:25.997Z,534.00
2022-11-14T00:07:56.040Z,534.00
2022-11-14T00:08:26.187Z,533.00
2022-11-14T00:08:56.180Z,531.00
2022-11-14T00:09:26.206Z,531.00
2022-11-14T00:09:56.237Z,532.00
2022-11-14T00:10:26.231Z,531.00
2022-11-14T00:10:56.365Z,531.00
2022-11-14T00:11:26.361Z,534.00
2022-11-14T00:11:56.479Z,533.00
2022-11-14T00:12:26.593Z,533.00
2022-11-14T00:12:56.712Z,534.00
2022-11-14T00:13:26.704Z,533.00
2022-11-14T00:13:56.821Z,533.00
2022-11-14T00:14:26.949Z,532.00
2022-11-14T00:14:56.935Z,531.00
2022-11-14T00:15:27.165Z,533.00
2022-11-14T00:15:57.143Z,533.00
2022-11-14T00:16:27.150Z,533.00
2022-11-14T00:16:57.140Z,532.00
2022-11-14T00:17:27.133Z,532.00
2022-11-14T00:17:57.253Z,532.00
2022-11-14T00:18:27.731Z,532.00
2022-11-14T00:18:57.424Z,532.00
2022-11-14T00:19:27.420Z,531.00
2022-11-14T00:19:57.420Z,531.00
2022-11-14T00:20:27.454Z,533.00
2022-11-14T00:20:57.493Z,534.00
2022-11-14T00:21:27.520Z,533.00
2022-11-14T00:21:57.556Z,532.00
2022-11-14T00:22:27.603Z,531.00
2022-11-14T00:22:57.636Z,535.00
2022-11-14T00:23:27.666Z,535.00
2022-11-14T00:23:57.700Z,536.00
2022-11-14T00:24:27.734Z,536.00
2022-11-14T00:24:57.763Z,535.00
2022-11-14T00:25:27.797Z,534.00
2022-11-14T00:25:57.829Z,536.00
2022-11-14T00:26:27.864Z,536.00
2022-11-14T00:26:57.904Z,536.00
2022-11-14T00:27:27.936Z,536.00
2022-11-14T00:27:57.982Z,535.00
2022-11-14T00:28:28.375Z,533.00
2022-11-14T00:28:58.011Z,532.00
2022-11-14T00:29:28.038Z,531.00
2022-11-14T00:29:58.071Z,532.00
2022-11-14T00:30:28.099Z,533.00
2022-11-14T00:30:58.244Z,533.00
2022-11-14T00:31:28.248Z,535.00
2022-11-14T00:31:58.280Z,535.00
2022-11-14T00:32:28.306Z,535.00
2022-11-14T00:32:58.340Z,535.00
2022-11-14T00:33:28.374Z,533.00
2022-11-14T00:33:58.403Z,532.00
2022-11-14T00:34:28.435Z,531.00
2022-11-14T00:34:58.471Z,532.00
2022-11-14T00:35:28.501Z,532.00
2022-11-14T00:35:58.541Z,532.00
2022-11-14T00:36:28.574Z,532.00
2022-11-14T00:36:58.603Z,532.00
2022-11-14T00:37:28.635Z,533.00
2022-11-14T00:37:58.669Z,531.00
2022-11-14T00:38:29.196Z,530.00
2022-11-14T00:38:58.695Z,531.00
2022-11-14T00:39:28.723Z,528.00
2022-11-14T00:39:58.765Z,528.00
2022-11-14T00:40:28.792Z,528.00
2022-11-14T00:40:58.841Z,528.00
2022-11-14T00:41:28.871Z,529.00
2022-11-14T00:41:58.910Z,528.00
2022-11-14T00:42:28.945Z,527.00
2022-11-14T00:42:58.970Z,527.00
2022-11-14T00:43:29.001Z,528.00
2022-11-14T00:43:59.032Z,527.00
2022-11-14T00:44:29.060Z,526.00
2022-11-14T00:44:59.093Z,526.00
2022-11-14T00:45:29.123Z,527.00
2022-11-14T00:45:59.154Z,526.00
2022-11-14T00:46:29.309Z,526.00
2022-11-14T00:46:59.309Z,525.00
2022-11-14T00:47:29.338Z,526.00
2022-11-14T00:47:59.369Z,525.00
2022-11-14T00:48:29.829Z,525.00
2022-11-14T00:48:59.413Z,524.00
2022-11-14T00:49:29.442Z,523.00
2022-11-14T00:49:59.475Z,523.00
2022-11-14T00:50:29.502Z,525.00
2022-11-14T00:50:59.543Z,525.00
2022-11-14T00:51:29.578Z,525.00
2022-11-14T00:51:59.612Z,525.00
2022-11-14T00:52:29.638Z,524.00
2022-11-14T00:52:59.677Z,524.00
2022-11-14T00:53:29.702Z,524.00
2022-11-14T00:53:59.736Z,523.00
2022-11-14T00:54:29.769Z,524.00
2022-11-14T00:54:59.799Z,522.00
2022-11-14T00:55:29.831Z,522.00
2022-11-14T00:55:59.869Z,521.00
2022-11-14T00:56:29.905Z,522.00
2022-11-14T00:56:59.937Z,523.00
2022-11-14T00:57:29.967Z,524.00
2022-11-14T00:58:00.002Z,524.00
2022-11-14T00:58:30.426Z,522.00
2022-11-14T00:59:00.124Z,524.00
2022-11-14T00:59:30.152Z,525.00
2022-11-14T01:00:00.186Z,526.00
2022-11-14T01:00:30.305Z,526.00
2022-11-14T01:01:00.427Z,527.00
2022-11-14T01:01:30.330Z,526.00
2022-11-14T01:02:00.482Z,528.00
2022-11-14T01:02:30.476Z,529.00
2022-11-14T01:03:00.501Z,530.00
2022-11-14T01:03:30.535Z,529.00
2022-11-14T01:04:00.578Z,529.00
2022-11-14T01:04:30.589Z,529.00
2022-11-14T01:05:00.647Z,529.00
2022-11-14T01:05:30.701Z,529.00
2022-11-14T01:06:00.748Z,528.00
2022-11-14T01:06:30.774Z,529.00
2022-11-14T01:07:00.819Z,530.00
2022-11-14T01:07:30.841Z,532.00
2022-11-14T01:08:00.868Z,533.00
2022-11-14T01:08:31.196Z,532.00
2022-11-14T01:09:01.010Z,531.00
2022-11-14T01:09:31.111Z,531.00
2022-11-14T01:10:01.127Z,532.00
2022-11-14T01:10:31.229Z,533.00
2022-11-14T01:11:01.355Z,535.00
2022-11-14T01:11:31.351Z,533.00
2022-11-14T01:12:01.469Z,531.00
2022-11-14T01:12:31.589Z,531.00
2022-11-14T01:13:01.706Z,531.00
2022-11-14T01:13:31.825Z,531.00
2022-11-14T01:14:01.943Z,531.00
2022-11-14T01:14:32.061Z,529.00
2022-11-14T01:15:02.180Z,528.00
2022-11-14T01:15:32.176Z,528.00
2022-11-14T01:16:02.313Z,528.00
2022-11-14T01:16:32.293Z,528.00
2022-11-14T01:17:02.410Z,528.00
2022-11-14T01:17:32.365Z,526.00
2022-11-14T01:18:02.482Z,527.00
2022-11-14T01:18:32.755Z,528.00
2022-11-14T01:19:02.500Z,528.00
2022-11-14T01:19:32.618Z,526.00
2022-11-14T01:20:02.626Z,525.00
2022-11-14T01:20:32.658Z,524.00
2022-11-14T01:21:02.687Z,523.00
2022-11-14T01:21:32.719Z,523.00
2022-11-14T01:22:06.206Z,524.00
2022-11-14T01:22:32.872Z,525.00
2022-11-14T01:23:02.903Z,525.00
2022-11-14T01:23:32.942Z,524.00
2022-11-14T01:24:02.971Z,525.00
2022-11-14T01:24:32.997Z,526.00
2022-11-14T01:25:03.033Z,526.00
2022-11-14T01:25:33.061Z,526.00
2022-11-14T01:26:03.111Z,524.00
2022-11-14T01:26:33.149Z,523.00
2022-11-14T01:27:03.242Z,524.00
2022-11-14T01:27:33.253Z,526.00
2022-11-14T01:28:03.285Z,526.00
2022-11-14T01:28:33.320Z,525.00
2022-11-14T01:29:03.344Z,527.00
2022-11-14T01:29:33.380Z,527.00
2022-11-14T01:30:03.410Z,529.00
2022-11-14T01:30:33.439Z,527.00
2022-11-14T01:31:03.476Z,527.00
2022-11-14T01:31:33.510Z,526.00
2022-11-14T01:32:03.540Z,527.00
2022-11-14T01:32:33.690Z,528.00
2022-11-14T01:33:03.690Z,530.00
2022-11-14T01:33:33.719Z,529.00
2022-11-14T01:34:03.749Z,529.00
2022-11-14T01:34:33.789Z,529.00
2022-11-14T01:35:03.811Z,530.00
2022-11-14T01:35:33.843Z,530.00
2022-11-14T01:36:03.896Z,531.00
2022-11-14T01:36:33.934Z,533.00
2022-11-14T01:37:03.965Z,533.00
2022-11-14T01:37:34.002Z,532.00
2022-11-14T01:38:04.029Z,532.00
2022-11-14T01:38:34.059Z,532.00
2022-11-14T01:39:04.090Z,532.00
2022-11-14T01:39:34.116Z,532.00
2022-11-14T01:40:04.146Z,532.00
2022-11-14T01:40:34.183Z,531.00
2022-11-14T01:41:04.213Z,529.00
2022-11-14T01:41:34.242Z,530.00
2022-11-14T01:42:04.273Z,531.00
2022-11-14T01:42:34.301Z,530.00
2022-11-14T01:43:04.329Z,530.00
2022-11-14T01:43:34.362Z,531.00
2022-11-14T01:44:04.392Z,531.00
2022-11-14T01:44:34.420Z,532.00
2022-11-14T01:45:04.453Z,533.00
2022-11-14T01:45:34.494Z,535.00
2022-11-14T01:46:04.519Z,534.00
2022-11-14T01:46:34.553Z,533.00
2022-11-14T01:47:04.585Z,534.00
2022-11-14T01:47:34.616Z,533.00
2022-11-14T01:48:04.772Z,533.00
2022-11-14T01:48:34.766Z,533.00
2022-11-14T01:49:04.791Z,533.00
2022-11-14T01:49:34.828Z,532.00
2022-11-14T01:50:04.864Z,533.00
2022-11-14T01:50:34.890Z,532.00
2022-11-14T01:51:04.929Z,532.00
2022-11-14T01:51:34.969Z,531.00
2022-11-14T01:52:04.998Z,532.00
2022-11-14T01:52:35.041Z,532.00
2022-11-14T01:53:05.068Z,532.00
2022-11-14T01:53:35.100Z,531.00
2022-11-14T01:54:05.131Z,530.00
2022-11-14T01:54:35.166Z,530.00
2022-11-14T01:55:05.197Z,529.00
2022-11-14T01:55:35.227Z,528.00
2022-11-14T01:56:05.266Z,530.00
2022-11-14T01:56:35.300Z,527.00
2022-11-14T01:57:05.334Z,527.00
2022-11-14T01:57:35.361Z,527.00
2022-11-14T01:58:05.395Z,527.00
2022-11-14T01:58:35.441Z,527.00
2022-11-14T01:59:05.465Z,526.00
2022-11-14T01:59:35.503Z,528.00
2022-11-14T02:00:05.539Z,527.00
2022-11-14T02:00:35.578Z,529.00
2022-11-14T02:01:05.698Z,527.00
2022-11-14T02:01:35.800Z,526.00
2022-11-14T02:02:05.805Z,528.00
2022-11-14T02:02:35.841Z,526.00
2022-11-14T02:03:05.872Z,525.00
2022-11-14T02:03:36.024Z,524.00
2022-11-14T02:04:06.737Z,523.00
2022-11-14T02:04:36.038Z,522.00
2022-11-14T02:05:06.071Z,522.00
2022-11-14T02:05:36.124Z,523.00
2022-11-14T02:06:06.153Z,523.00
2022-11-14T02:06:36.195Z,524.00
2022-11-14T02:07:06.342Z,524.00
2022-11-14T02:07:36.420Z,524.00
2022-11-14T02:08:06.284Z,525.00
2022-11-14T02:08:36.313Z,526.00
2022-11-14T02:09:06.345Z,524.00
2022-11-14T02:09:36.375Z,525.00
2022-11-14T02:10:06.387Z,525.00
2022-11-14T02:10:36.510Z,525.00
2022-11-14T02:11:06.622Z,525.00
2022-11-14T02:11:36.619Z,525.00
2022-11-14T02:12:06.616Z,525.00
2022-11-14T02:12:36.731Z,525.00
2022-11-14T02:13:06.848Z,523.00
2022-11-14T02:13:36.966Z,524.00
2022-11-14T02:14:07.084Z,524.00
2022-11-14T02:14:37.204Z,525.00
2022-11-14T02:15:07.197Z,523.00
2022-11-14T02:15:37.195Z,523.00
2022-11-14T02:16:07.188Z,523.00
2022-11-14T02:16:37.187Z,522.00
2022-11-14T02:17:28.420Z,521.00
2022-11-14T02:17:37.196Z,521.00
2022-11-14T02:18:07.190Z,522.00
2022-11-14T02:18:37.313Z,522.00
2022-11-14T02:19:07.543Z,523.00
2022-11-14T02:19:37.505Z,525.00
2022-11-14T02:20:07.516Z,523.00
2022-11-14T02:20:37.552Z,522.00
2022-11-14T02:21:07.587Z,522.00
2022-11-14T02:21:37.623Z,521.00
2022-11-14T02:22:07.657Z,521.00
2022-11-14T02:22:37.690Z,522.00
2022-11-14T02:23:07.733Z,521.00
2022-11-14T02:23:37.755Z,520.00
2022-11-14T02:24:07.797Z,519.00
2022-11-14T02:24:37.828Z,518.00
2022-11-14T02:25:07.872Z,515.00
2022-11-14T02:25:37.908Z,515.00
2022-11-14T02:26:07.943Z,516.00
2022-11-14T02:26:37.974Z,517.00
2022-11-14T02:27:08.026Z,517.00
2022-11-14T02:27:38.054Z,518.00
2022-11-14T02:28:08.087Z,519.00
2022-11-14T02:28:38.117Z,517.00
2022-11-14T02:29:08.149Z,517.00
2022-11-14T02:29:38.181Z,518.00
2022-11-14T02:30:08.220Z,518.00
2022-11-14T02:30:38.249Z,516.00
2022-11-14T02:31:08.280Z,514.00
2022-11-14T02:31:38.317Z,513.00
2022-11-14T02:32:10.848Z,513.00
2022-11-14T02:33:09.432Z,513.00
2022-11-14T02:33:10.900Z,514.00
2022-11-14T02:33:38.555Z,514.00
2022-11-14T02:34:08.582Z,514.00
2022-11-14T02:34:38.743Z,514.00
2022-11-14T02:35:08.621Z,514.00
2022-11-14T02:35:38.652Z,515.00
2022-11-14T02:36:08.679Z,517.00
2022-11-14T02:36:38.717Z,519.00
2022-11-14T02:37:08.756Z,519.00
2022-11-14T02:37:38.790Z,519.00
2022-11-14T02:38:08.841Z,519.00
2022-11-14T02:38:38.887Z,519.00
2022-11-14T02:39:08.917Z,518.00
2022-11-14T02:39:38.965Z,519.00
2022-11-14T02:40:08.989Z,521.00
2022-11-14T02:40:39.014Z,521.00
2022-11-14T02:41:09.056Z,521.00
2022-11-14T02:41:39.091Z,522.00
2022-11-14T02:42:09.128Z,523.00
2022-11-14T02:42:39.154Z,523.00
2022-11-14T02:43:09.190Z,523.00
2022-11-14T02:43:39.215Z,525.00
2022-11-14T02:44:09.243Z,525.00
2022-11-14T02:44:39.278Z,524.00
2022-11-14T02:45:09.324Z,524.00
2022-11-14T02:45:39.353Z,524.00
2022-11-14T02:46:09.389Z,522.00
2022-11-14T02:46:39.424Z,522.00
2022-11-14T02:47:09.453Z,520.00
2022-11-14T02:47:39.489Z,519.00
2022-11-14T02:48:09.521Z,521.00
2022-11-14T02:48:39.552Z,521.00
2022-11-14T02:49:09.587Z,522.00
2022-11-14T02:49:39.620Z,522.00
2022-11-14T02:50:09.787Z,523.00
2022-11-14T02:50:39.650Z,521.00
2022-11-14T02:51:09.685Z,520.00
2022-11-14T02:51:39.720Z,519.00
2022-11-14T02:52:09.747Z,519.00
2022-11-14T02:52:39.786Z,517.00
2022-11-14T02:53:09.821Z,518.00
2022-11-14T02:53:39.850Z,519.00
2022-11-14T02:54:09.885Z,519.00
2022-11-14T02:54:39.918Z,517.00
2022-11-14T02:55:09.966Z,516.00
2022-11-14T02:55:40.005Z,515.00
2022-11-14T02:56:10.029Z,514.00
2022-11-14T02:56:40.060Z,513.00
2022-11-14T02:57:10.113Z,513.00
2022-11-14T02:57:40.125Z,512.00
2022-11-14T02:58:10.153Z,514.00
2022-11-14T02:58:40.183Z,514.00
2022-11-14T02:59:10.219Z,514.00
2022-11-14T02:59:40.257Z,515.00
2022-11-14T03:00:14.825Z,515.00
2022-11-14T03:00:59.160Z,516.00
2022-11-14T03:01:25.683Z,518.00
2022-11-14T03:01:40.485Z,516.00
2022-11-14T03:02:10.494Z,516.00
2022-11-14T03:02:40.544Z,515.00
2022-11-14T03:03:10.573Z,516.00
2022-11-14T03:03:40.605Z,516.00
2022-11-14T03:04:10.639Z,516.00
2022-11-14T03:04:40.668Z,517.00
2022-11-14T03:05:10.722Z,516.00
2022-11-14T03:05:40.880Z,515.00
2022-11-14T03:06:10.877Z,514.00
2022-11-14T03:06:40.897Z,512.00
2022-11-14T03:07:11.017Z,513.00
2022-11-14T03:07:40.947Z,513.00
2022-11-14T03:08:10.981Z,513.00
2022-11-14T03:08:41.015Z,513.00
2022-11-14T03:09:11.051Z,514.00
2022-11-14T03:09:41.078Z,513.00
2022-11-14T03:10:11.090Z,514.00
2022-11-14T03:10:41.088Z,514.00
2022-11-14T03:11:11.203Z,512.00
2022-11-14T03:11:41.202Z,512.00
2022-11-14T03:12:11.200Z,514.00
2022-11-14T03:12:41.317Z,514.00
2022-11-14T03:13:11.307Z,513.00
2022-11-14T03:13:41.303Z,515.00
2022-11-14T03:14:11.299Z,515.00
2022-11-14T03:14:41.415Z,515.00
2022-11-14T03:15:11.424Z,515.00
2022-11-14T03:15:41.424Z,515.00
2022-11-14T03:16:11.417Z,514.00
2022-11-14T03:16:41.415Z,514.00
2022-11-14T03:17:11.409Z,512.00
2022-11-14T03:17:41.526Z,512.00
2022-11-14T03:18:11.526Z,510.00
2022-11-14T03:18:41.522Z,510.00
2022-11-14T03:19:11.644Z,510.00
2022-11-14T03:19:41.761Z,511.00
2022-11-14T03:20:11.792Z,511.00
2022-11-14T03:20:41.823Z,512.00
2022-11-14T03:21:11.974Z,511.00
2022-11-14T03:21:41.970Z,512.00
2022-11-14T03:22:12.006Z,512.00
2022-11-14T03:22:42.037Z,512.00
2022-11-14T03:23:12.074Z,511.00
2022-11-14T03:23:42.102Z,513.00
2022-11-14T03:24:12.131Z,513.00
2022-11-14T03:24:42.165Z,513.00
2022-11-14T03:25:12.210Z,512.00
2022-11-14T03:25:42.245Z,513.00
2022-11-14T03:26:12.277Z,515.00
2022-11-14T03:26:42.306Z,514.00
2022-11-14T03:27:12.342Z,514.00
2022-11-14T03:27:42.370Z,515.00
2022-11-14T03:28:12.408Z,514.00
2022-11-14T03:28:42.442Z,513.00
2022-11-14T03:29:12.473Z,514.00
2022-11-14T03:29:42.507Z,512.00
2022-11-14T03:30:12.550Z,511.00
2022-11-14T03:30:42.576Z,511.00
2022-11-14T03:31:12.611Z,511.00
2022-11-14T03:31:42.647Z,511.00
2022-11-14T03:32:12.680Z,510.00
2022-11-14T03:32:42.712Z,510.00
2022-11-14T03:33:12.749Z,511.00
2022-11-14T03:33:42.778Z,511.00
2022-11-14T03:34:12.805Z,512.00
2022-11-14T03:34:42.845Z,513.00
2022-11-14T03:35:12.876Z,513.00
2022-11-14T03:35:42.902Z,514.00
2022-11-14T03:36:12.938Z,515.00
2022-11-14T03:36:43.086Z,517.00
2022-11-14T03:37:13.081Z,517.00
2022-11-14T03:37:43.111Z,517.00
2022-11-14T03:38:13.145Z,517.00
2022-11-14T03:38:43.175Z,516.00
2022-11-14T03:39:13.229Z,517.00
2022-11-14T03:39:43.266Z,519.00
2022-11-14T03:40:13.302Z,518.00
2022-11-14T03:40:43.326Z,519.00
2022-11-14T03:41:13.366Z,518.00
2022-11-14T03:41:43.396Z,517.00
2022-11-14T03:42:13.429Z,518.00
2022-11-14T03:42:43.468Z,518.00
2022-11-14T03:43:13.500Z,518.00
2022-11-14T03:43:43.526Z,517.00
2022-11-14T03:44:13.579Z,515.00
2022-11-14T03:44:43.616Z,515.00
2022-11-14T03:45:13.648Z,516.00
2022-11-14T03:45:43.680Z,516.00
2022-11-14T03:46:13.715Z,516.00
2022-11-14T03:46:43.751Z,517.00
2022-11-14T03:47:13.784Z,515.00
2022-11-14T03:47:43.822Z,516.00
2022-11-14T03:48:13.854Z,515.00
2022-11-14T03:48:43.882Z,516.00
2022-11-14T03:49:13.943Z,513.00
2022-11-14T03:49:43.983Z,513.00
2022-11-14T03:50:14.010Z,514.00
2022-11-14T03:50:44.043Z,515.00
2022-11-14T03:51:14.086Z,514.00
2022-11-14T03:51:44.107Z,514.00
2022-11-14T03:52:14.252Z,513.00
2022-11-14T03:52:44.251Z,513.00
2022-11-14T03:53:14.288Z,515.00
2022-11-14T03:53:44.321Z,514.00
2022-11-14T03:54:14.371Z,516.00
2022-11-14T03:54:44.404Z,517.00
2022-11-14T03:55:14.432Z,518.00
2022-11-14T03:55:44.462Z,518.00
2022-11-14T03:56:14.498Z,518.00
2022-11-14T03:56:44.521Z,519.00
2022-11-14T03:57:14.553Z,518.00
2022-11-14T03:57:44.582Z,518.00
2022-11-14T03:58:14.613Z,519.00
2022-11-14T03:58:44.661Z,518.00
2022-11-14T03:59:14.695Z,516.00
2022-11-14T03:59:44.725Z,514.00
2022-11-14T04:00:14.749Z,515.00
2022-11-14T04:00:44.870Z,515.00
2022-11-14T04:01:14.981Z,514.00
2022-11-14T04:01:45.009Z,514.00
2022-11-14T04:02:15.037Z,514.00
2022-11-14T04:02:45.071Z,514.00
2022-11-14T04:03:15.093Z,515.00
2022-11-14T04:03:45.275Z,516.00
2022-11-14T04:04:15.184Z,516.00
2022-11-14T04:04:45.213Z,516.00
2022-11-14T04:05:15.244Z,516.00
2022-11-14T04:05:45.352Z,518.00
2022-11-14T04:06:15.364Z,519.00
2022-11-14T04:06:45.457Z,518.00
2022-11-14T04:07:15.629Z,517.00
2022-11-14T04:07:45.671Z,518.00
2022-11-14T04:08:15.664Z,518.00
2022-11-14T04:08:45.718Z,518.00
2022-11-14T04:09:15.754Z,517.00
2022-11-14T04:09:45.779Z,516.00
2022-11-14T04:10:15.906Z,517.00
2022-11-14T04:10:45.895Z,517.00
2022-11-14T04:11:15.890Z,516.00
2022-11-14T04:11:46.003Z,517.00
2022-11-14T04:12:16.235Z,518.00
2022-11-14T04:12:46.204Z,518.00
2022-11-14T04:13:16.321Z,517.00
2022-11-14T04:13:46.440Z,516.00
2022-11-14T04:14:16.566Z,514.00
2022-11-14T04:14:46.555Z,515.00
2022-11-14T04:15:16.668Z,515.00
2022-11-14T04:15:46.789Z,515.00
2022-11-14T04:16:16.782Z,515.00
2022-11-14T04:16:46.902Z,512.00
2022-11-14T04:17:16.895Z,512.00
2022-11-14T04:17:46.890Z,513.00
2022-11-14T04:18:17.006Z,512.00
2022-11-14T04:18:46.998Z,513.00
2022-11-14T04:19:16.997Z,512.00
2022-11-14T04:19:47.112Z,512.00
2022-11-14T04:20:17.145Z,512.00
2022-11-14T04:20:47.182Z,512.00
2022-11-14T04:21:17.214Z,512.00
2022-11-14T04:21:47.249Z,512.00
2022-11-14T04:22:17.284Z,513.00
2022-11-14T04:22:47.314Z,512.00
2022-11-14T04:23:17.469Z,513.00
2022-11-14T04:23:47.464Z,512.00
2022-11-14T04:24:17.503Z,514.00
2022-11-14T04:24:47.537Z,513.00
2022-11-14T04:25:17.572Z,515.00
2022-11-14T04:25:47.609Z,517.00
2022-11-14T04:26:17.634Z,516.00
2022-11-14T04:26:47.667Z,516.00
2022-11-14T04:27:17.704Z,514.00
2022-11-14T04:27:47.734Z,515.00
2022-11-14T04:28:17.774Z,514.00
2022-11-14T04:28:47.806Z,513.00
2022-11-14T04:29:17.847Z,513.00
2022-11-14T04:29:47.918Z,514.00
2022-11-14T04:30:17.956Z,516.00
2022-11-14T04:30:47.985Z,516.00
2022-11-14T04:31:18.022Z,515.00
2022-11-14T04:31:48.054Z,513.00
2022-11-14T04:32:18.088Z,511.00
2022-11-14T04:32:48.117Z,511.00
2022-11-14T04:33:18.149Z,513.00
2022-11-14T04:33:48.178Z,511.00
2022-11-14T04:34:18.217Z,510.00
2022-11-14T04:34:48.247Z,511.00
2022-11-14T04:35:18.296Z,510.00
2022-11-14T04:35:48.339Z,511.00
2022-11-14T04:36:18.362Z,513.00
2022-11-14T04:36:48.389Z,513.00
2022-11-14T04:37:18.424Z,514.00
2022-11-14T04:37:48.456Z,514.00
2022-11-14T04:38:18.487Z,515.00
2022-11-14T04:38:48.638Z,519.00
2022-11-14T04:39:18.641Z,520.00
2022-11-14T04:39:48.667Z,520.00
2022-11-14T04:40:18.718Z,520.00
2022-11-14T04:40:48.745Z,520.00
2022-11-14T04:41:18.771Z,520.00
2022-11-14T04:41:48.808Z,519.00
2022-11-14T04:42:18.840Z,519.00
2022-11-14T04:42:48.869Z,520.00
2022-11-14T04:43:18.904Z,519.00
2022-11-14T04:43:51.003Z,520.00
2022-11-14T04:44:19.023Z,519.00
2022-11-14T04:44:49.149Z,518.00
2022-11-14T04:45:19.086Z,517.00
2022-11-14T04:45:49.090Z,516.00
2022-11-14T04:46:19.132Z,515.00
2022-11-14T04:46:49.162Z,515.00
2022-11-14T04:47:19.191Z,515.00
2022-11-14T04:47:49.231Z,516.00
2022-11-14T04:48:19.263Z,516.00
2022-11-14T04:48:49.292Z,517.00
2022-11-14T04:49:19.340Z,516.00
2022-11-14T04:49:49.371Z,514.00
2022-11-14T04:50:19.405Z,515.00
2022-11-14T04:50:49.436Z,515.00
2022-11-14T04:51:19.466Z,589.00
2022-11-14T04:51:49.502Z,572.00
2022-11-14T04:52:19.531Z,552.00
2022-11-14T04:52:49.563Z,541.00
2022-11-14T04:53:19.594Z,537.00
2022-11-14T04:53:49.622Z,534.00
2022-11-14T04:54:19.784Z,534.00
2022-11-14T04:54:49.774Z,531.00
2022-11-14T04:55:19.810Z,536.00
2022-11-14T04:55:49.845Z,536.00
2022-11-14T04:56:19.875Z,537.00
2022-11-14T04:56:49.910Z,539.00
2022-11-14T04:57:19.944Z,540.00
2022-11-14T04:57:49.981Z,542.00
2022-11-14T04:58:20.015Z,548.00
2022-11-14T04:58:50.050Z,554.00
2022-11-14T04:59:21.195Z,582.00
2022-11-14T04:59:50.122Z,586.00
2022-11-14T05:00:20.161Z,585.00
2022-11-14T05:00:50.185Z,584.00
2022-11-14T05:01:20.312Z,584.00
2022-11-14T05:01:50.287Z,584.00
2022-11-14T05:02:20.335Z,586.00
2022-11-14T05:02:50.366Z,587.00
2022-11-14T05:03:20.401Z,587.00
2022-11-14T05:03:50.441Z,588.00
2022-11-14T05:04:20.476Z,589.00
2022-11-14T05:04:50.511Z,591.00
2022-11-14T05:05:20.660Z,594.00
2022-11-14T05:05:50.546Z,600.00
2022-11-14T05:06:20.575Z,602.00
2022-11-14T05:06:50.656Z,604.00
2022-11-14T05:07:20.725Z,606.00
2022-11-14T05:07:50.765Z,605.00
2022-11-14T05:08:20.797Z,607.00
2022-11-14T05:08:50.828Z,608.00
2022-11-14T05:09:20.885Z,609.00
2022-11-14T05:09:50.937Z,610.00
2022-11-14T05:10:21.045Z,609.00
2022-11-14T05:10:51.005Z,611.00
2022-11-14T05:11:24.187Z,613.00
2022-11-14T05:11:51.017Z,614.00
2022-11-14T05:12:21.149Z,616.00
2022-11-14T05:12:51.250Z,617.00
2022-11-14T05:13:21.368Z,616.00
2022-11-14T05:13:51.487Z,618.00
2022-11-14T05:14:21.610Z,619.00
2022-11-14T05:14:51.602Z,619.00
2022-11-14T05:15:21.721Z,619.00
2022-11-14T05:15:51.837Z,618.00
2022-11-14T05:16:21.952Z,619.00
2022-11-14T05:16:51.953Z,620.00
2022-11-14T05:17:22.068Z,620.00
2022-11-14T05:17:52.184Z,621.00
2022-11-14T05:18:22.307Z,623.00
2022-11-14T05:18:52.299Z,623.00
2022-11-14T05:19:22.422Z,625.00
2022-11-14T05:19:52.417Z,627.00
2022-11-14T05:20:22.456Z,628.00
2022-11-14T05:20:52.514Z,632.00
2022-11-14T05:21:22.525Z,634.00
2022-11-14T05:21:52.553Z,637.00
2022-11-14T05:22:22.588Z,638.00
2022-11-14T05:22:52.610Z,638.00
2022-11-14T05:23:22.650Z,639.00
2022-11-14T05:23:52.688Z,637.00
2022-11-14T05:24:22.716Z,637.00
2022-11-14T05:24:52.749Z,634.00
2022-11-14T05:25:22.921Z,634.00
2022-11-14T05:25:58.548Z,633.00
2022-11-14T05:26:22.843Z,635.00
2022-11-14T05:26:52.876Z,636.00
2022-11-14T05:27:22.920Z,637.00
2022-11-14T05:27:52.952Z,637.00
2022-11-14T05:28:22.993Z,639.00
2022-11-14T05:28:53.028Z,640.00
2022-11-14T05:29:23.069Z,642.00
2022-11-14T05:29:53.099Z,644.00
2022-11-14T05:30:23.127Z,644.00
2022-11-14T05:30:53.156Z,643.00
2022-11-14T05:31:23.185Z,644.00
2022-11-14T05:31:53.215Z,643.00
2022-11-14T05:32:23.240Z,644.00
2022-11-14T05:32:53.267Z,644.00
2022-11-14T05:33:23.299Z,646.00
2022-11-14T05:33:53.335Z,644.00
2022-11-14T05:34:23.369Z,645.00
2022-11-14T05:34:53.404Z,648.00
2022-11-14T05:35:23.439Z,650.00
2022-11-14T05:35:53.469Z,649.00
2022-11-14T05:36:23.504Z,651.00
2022-11-14T05:36:53.541Z,651.00
2022-11-14T05:37:23.573Z,653.00
2022-11-14T05:37:58.759Z,655.00
2022-11-14T05:38:23.659Z,655.00
2022-11-14T05:38:53.690Z,656.00
2022-11-14T05:39:23.890Z,656.00
2022-11-14T05:39:53.796Z,657.00
2022-11-14T05:40:23.833Z,657.00
2022-11-14T05:40:53.897Z,654.00
2022-11-14T05:41:23.905Z,653.00
2022-11-14T05:41:53.936Z,653.00
2022-11-14T05:42:23.967Z,650.00
2022-11-14T05:42:54.003Z,651.00
2022-11-14T05:43:24.035Z,653.00
2022-11-14T05:43:54.063Z,654.00
2022-11-14T05:44:24.112Z,655.00
2022-11-14T05:44:54.144Z,658.00
2022-11-14T05:45:24.174Z,656.00
2022-11-14T05:45:54.211Z,655.00
2022-11-14T05:46:24.251Z,656.00
2022-11-14T05:46:54.284Z,659.00
2022-11-14T05:47:24.313Z,661.00
2022-11-14T05:47:54.345Z,664.00
2022-11-14T05:48:24.376Z,666.00
2022-11-14T05:48:54.407Z,668.00
2022-11-14T05:49:24.466Z,667.00
2022-11-14T05:49:54.519Z,668.00
2022-11-14T05:50:24.541Z,668.00
2022-11-14T05:50:54.576Z,670.00
2022-11-14T05:51:24.610Z,671.00
2022-11-14T05:51:54.658Z,671.00
2022-11-14T05:52:24.688Z,671.00
2022-11-14T05:52:54.721Z,671.00
2022-11-14T05:53:24.763Z,671.00
2022-11-14T05:53:54.781Z,671.00
2022-11-14T05:54:24.831Z,670.00
2022-11-14T05:54:54.865Z,668.00
2022-11-14T05:55:25.326Z,665.00
2022-11-14T05:55:55.000Z,665.00
2022-11-14T05:56:25.070Z,662.00
2022-11-14T05:56:55.074Z,662.00
2022-11-14T05:57:25.106Z,661.00
2022-11-14T05:57:55.145Z,663.00
2022-11-14T05:58:25.172Z,662.00
2022-11-14T05:58:55.202Z,661.00
2022-11-14T05:59:25.259Z,664.00
2022-11-14T05:59:55.304Z,665.00
2022-11-14T06:00:25.320Z,665.00
2022-11-14T06:00:55.353Z,667.00
2022-11-14T06:01:25.388Z,668.00
2022-11-14T06:01:55.481Z,667.00
2022-11-14T06:02:25.550Z,665.00
2022-11-14T06:02:55.568Z,665.00
2022-11-14T06:03:25.598Z,665.00
2022-11-14T06:03:55.629Z,663.00
2022-11-14T06:04:25.676Z,661.00
2022-11-14T06:04:55.702Z,659.00
2022-11-14T06:05:25.758Z,656.00
2022-11-14T06:05:55.785Z,655.00
2022-11-14T06:06:25.811Z,652.00
2022-11-14T06:06:55.893Z,648.00
2022-11-14T06:07:26.027Z,646.00
2022-11-14T06:07:55.940Z,643.00
2022-11-14T06:08:25.969Z,642.00
2022-11-14T06:08:56.001Z,640.00
2022-11-14T06:09:26.249Z,638.00
2022-11-14T06:09:56.070Z,639.00
2022-11-14T06:10:26.070Z,642.00
2022-11-14T06:10:56.062Z,647.00
2022-11-14T06:11:26.183Z,650.00
2022-11-14T06:11:56.203Z,652.00
2022-11-14T06:12:26.173Z,653.00
2022-11-14T06:12:56.289Z,655.00
2022-11-14T06:13:26.287Z,655.00
2022-11-14T06:13:56.408Z,654.00
2022-11-14T06:14:26.423Z,654.00
2022-11-14T06:14:56.424Z,653.00